sensor_id;sensor_type;location;lat;lon;timestamp;P1;durP1;ratioP1;P2;durP2;ratioP2
64252;SDS011;50592;52.958;-7.470;2023-07-13T00:02:15;6.32;;;1.38;;
64252;SDS011;50592;52.958;-7.470;2023-07-13T00:04:41;13.30;;;1.52;;
64252;SDS011;50592;52.958;-7.470;2023-07-13T00:07:07;6.70;;;1.50;;
64252;SDS011;50592;52.958;-7.470;2023-07-13T00:09:34;5.82;;;1.23;;
64252;SDS011;50592;52.958;-7.470;2023-07-13T00:12:00;9.18;;;1.30;;
64252;SDS011;50592;52.958;-7.470;2023-07-13T00:14:27;6.28;;;2.22;;
64252;SDS011;50592;52.958;-7.470;2023-07-13T00:16:54;8.98;;;1.42;;
64252;SDS011;50592;52.958;-7.470;2023-07-13T00:19:20;10.38;;;1.20;;
64252;SDS011;50592;52.958;-7.470;2023-07-13T00:21:46;7.38;;;1.20;;
64252;SDS011;50592;52.958;-7.470;2023-07-13T00:24:14;12.07;;;1.67;;
64252;SDS011;50592;52.958;-7.470;2023-07-13T00:26:43;8.73;;;1.55;;
64252;SDS011;50592;52.958;-7.470;2023-07-13T00:29:12;5.18;;;1.92;;
64252;SDS011;50592;52.958;-7.470;2023-07-13T00:31:39;8.15;;;1.73;;
64252;SDS011;50592;52.958;-7.470;2023-07-13T00:34:05;7.00;;;2.22;;
64252;SDS011;50592;52.958;-7.470;2023-07-13T00:36:31;8.25;;;1.80;;
64252;SDS011;50592;52.958;-7.470;2023-07-13T00:38:57;14.25;;;1.98;;
64252;SDS011;50592;52.958;-7.470;2023-07-13T00:41:23;7.32;;;1.55;;
64252;SDS011;50592;52.958;-7.470;2023-07-13T00:43:49;7.70;;;1.80;;
64252;SDS011;50592;52.958;-7.470;2023-07-13T00:46:29;8.15;;;2.13;;
64252;SDS011;50592;52.958;-7.470;2023-07-13T00:48:57;11.70;;;1.65;;
64252;SDS011;50592;52.958;-7.470;2023-07-13T00:51:31;11.43;;;2.08;;
64252;SDS011;50592;52.958;-7.470;2023-07-13T00:54:11;5.90;;;1.65;;
64252;SDS011;50592;52.958;-7.470;2023-07-13T00:56:41;5.13;;;1.45;;
64252;SDS011;50592;52.958;-7.470;2023-07-13T00:59:09;7.55;;;1.40;;
64252;SDS011;50592;52.958;-7.470;2023-07-13T01:01:38;6.43;;;1.30;;
64252;SDS011;50592;52.958;-7.470;2023-07-13T01:04:04;7.60;;;1.20;;
64252;SDS011;50592;52.958;-7.470;2023-07-13T01:06:36;14.90;;;1.40;;
64252;SDS011;50592;52.958;-7.470;2023-07-13T01:09:04;5.13;;;2.22;;
64252;SDS011;50592;52.958;-7.470;2023-07-13T01:11:31;4.18;;;1.38;;
64252;SDS011;50592;52.958;-7.470;2023-07-13T01:13:57;6.07;;;1.88;;
64252;SDS011;50592;52.958;-7.470;2023-07-13T01:16:25;6.57;;;1.90;;
64252;SDS011;50592;52.958;-7.470;2023-07-13T01:18:57;9.40;;;2.00;;
64252;SDS011;50592;52.958;-7.470;2023-07-13T01:21:24;8.32;;;1.83;;
64252;SDS011;50592;52.958;-7.470;2023-07-13T01:23:51;7.68;;;1.73;;
64252;SDS011;50592;52.958;-7.470;2023-07-13T01:26:20;4.88;;;1.88;;
64252;SDS011;50592;52.958;-7.470;2023-07-13T01:28:46;6.43;;;1.95;;
64252;SDS011;50592;52.958;-7.470;2023-07-13T01:31:12;8.57;;;1.85;;
64252;SDS011;50592;52.958;-7.470;2023-07-13T01:33:39;4.97;;;1.58;;
64252;SDS011;50592;52.958;-7.470;2023-07-13T01:36:09;7.53;;;1.35;;
64252;SDS011;50592;52.958;-7.470;2023-07-13T01:38:36;3.85;;;1.05;;
64252;SDS011;50592;52.958;-7.470;2023-07-13T01:41:02;8.82;;;1.48;;
64252;SDS011;50592;52.958;-7.470;2023-07-13T01:43:28;7.07;;;1.33;;
64252;SDS011;50592;52.958;-7.470;2023-07-13T01:45:55;6.22;;;1.20;;
64252;SDS011;50592;52.958;-7.470;2023-07-13T01:48:20;9.15;;;1.35;;
64252;SDS011;50592;52.958;-7.470;2023-07-13T01:50:48;7.80;;;1.63;;
64252;SDS011;50592;52.958;-7.470;2023-07-13T01:53:13;5.25;;;1.67;;
64252;SDS011;50592;52.958;-7.470;2023-07-13T01:55:39;7.30;;;1.20;;
64252;SDS011;50592;52.958;-7.470;2023-07-13T01:58:05;10.70;;;1.40;;
64252;SDS011;50592;52.958;-7.470;2023-07-13T02:00:32;6.15;;;1.10;;
64252;SDS011;50592;52.958;-7.470;2023-07-13T02:02:58;6.20;;;1.23;;
64252;SDS011;50592;52.958;-7.470;2023-07-13T02:05:24;11.90;;;1.80;;
64252;SDS011;50592;52.958;-7.470;2023-07-13T02:07:50;4.97;;;1.23;;
64252;SDS011;50592;52.958;-7.470;2023-07-13T02:10:16;12.18;;;1.90;;
64252;SDS011;50592;52.958;-7.470;2023-07-13T02:12:43;5.55;;;1.35;;
64252;SDS011;50592;52.958;-7.470;2023-07-13T02:15:09;9.55;;;1.63;;
64252;SDS011;50592;52.958;-7.470;2023-07-13T02:17:36;7.10;;;1.35;;
64252;SDS011;50592;52.958;-7.470;2023-07-13T02:20:02;9.10;;;1.40;;
64252;SDS011;50592;52.958;-7.470;2023-07-13T02:22:30;7.05;;;1.70;;
64252;SDS011;50592;52.958;-7.470;2023-07-13T02:24:56;8.07;;;1.55;;
64252;SDS011;50592;52.958;-7.470;2023-07-13T02:27:22;9.70;;;1.67;;
64252;SDS011;50592;52.958;-7.470;2023-07-13T02:29:49;10.32;;;1.45;;
64252;SDS011;50592;52.958;-7.470;2023-07-13T02:32:17;5.30;;;1.10;;
64252;SDS011;50592;52.958;-7.470;2023-07-13T02:34:43;6.13;;;1.80;;
64252;SDS011;50592;52.958;-7.470;2023-07-13T02:37:10;4.07;;;1.48;;
64252;SDS011;50592;52.958;-7.470;2023-07-13T02:39:36;5.22;;;1.65;;
64252;SDS011;50592;52.958;-7.470;2023-07-13T02:42:02;5.43;;;1.92;;
64252;SDS011;50592;52.958;-7.470;2023-07-13T02:44:29;5.00;;;1.38;;
64252;SDS011;50592;52.958;-7.470;2023-07-13T02:46:55;4.00;;;1.33;;
64252;SDS011;50592;52.958;-7.470;2023-07-13T02:49:21;5.65;;;1.42;;
64252;SDS011;50592;52.958;-7.470;2023-07-13T02:51:46;7.65;;;2.00;;
64252;SDS011;50592;52.958;-7.470;2023-07-13T02:54:13;7.28;;;1.23;;
64252;SDS011;50592;52.958;-7.470;2023-07-13T02:56:40;8.50;;;2.17;;
64252;SDS011;50592;52.958;-7.470;2023-07-13T02:59:06;6.50;;;1.60;;
64252;SDS011;50592;52.958;-7.470;2023-07-13T03:01:32;5.30;;;1.35;;
64252;SDS011;50592;52.958;-7.470;2023-07-13T03:04:01;3.92;;;1.33;;
64252;SDS011;50592;52.958;-7.470;2023-07-13T03:06:28;6.10;;;1.65;;
64252;SDS011;50592;52.958;-7.470;2023-07-13T03:08:56;4.63;;;1.50;;
64252;SDS011;50592;52.958;-7.470;2023-07-13T03:11:22;8.88;;;1.55;;
64252;SDS011;50592;52.958;-7.470;2023-07-13T03:13:59;7.53;;;1.35;;
64252;SDS011;50592;52.958;-7.470;2023-07-13T03:16:28;9.05;;;1.58;;
64252;SDS011;50592;52.958;-7.470;2023-07-13T03:18:55;3.58;;;1.02;;
64252;SDS011;50592;52.958;-7.470;2023-07-13T03:21:21;6.57;;;1.80;;
64252;SDS011;50592;52.958;-7.470;2023-07-13T03:23:47;8.75;;;1.90;;
64252;SDS011;50592;52.958;-7.470;2023-07-13T03:26:17;5.18;;;1.77;;
64252;SDS011;50592;52.958;-7.470;2023-07-13T03:28:46;7.20;;;2.20;;
64252;SDS011;50592;52.958;-7.470;2023-07-13T03:31:18;7.38;;;2.00;;
64252;SDS011;50592;52.958;-7.470;2023-07-13T03:33:46;6.15;;;1.40;;
64252;SDS011;50592;52.958;-7.470;2023-07-13T03:36:24;7.20;;;1.45;;
64252;SDS011;50592;52.958;-7.470;2023-07-13T03:38:56;8.57;;;1.60;;
64252;SDS011;50592;52.958;-7.470;2023-07-13T03:41:32;7.75;;;1.63;;
64252;SDS011;50592;52.958;-7.470;2023-07-13T03:43:58;4.35;;;1.67;;
64252;SDS011;50592;52.958;-7.470;2023-07-13T03:46:26;3.97;;;1.65;;
64252;SDS011;50592;52.958;-7.470;2023-07-13T03:48:53;4.15;;;1.42;;
64252;SDS011;50592;52.958;-7.470;2023-07-13T03:51:19;4.75;;;1.30;;
64252;SDS011;50592;52.958;-7.470;2023-07-13T03:53:45;8.85;;;1.90;;
64252;SDS011;50592;52.958;-7.470;2023-07-13T03:56:15;7.80;;;1.90;;
64252;SDS011;50592;52.958;-7.470;2023-07-13T03:58:45;4.80;;;1.48;;
64252;SDS011;50592;52.958;-7.470;2023-07-13T04:01:21;4.38;;;1.48;;
64252;SDS011;50592;52.958;-7.470;2023-07-13T04:03:49;3.50;;;1.45;;
64252;SDS011;50592;52.958;-7.470;2023-07-13T04:06:16;3.08;;;1.77;;
64252;SDS011;50592;52.958;-7.470;2023-07-13T04:08:47;4.57;;;1.88;;
64252;SDS011;50592;52.958;-7.470;2023-07-13T04:11:16;11.40;;;2.00;;
64252;SDS011;50592;52.958;-7.470;2023-07-13T04:13:43;5.93;;;2.17;;
64252;SDS011;50592;52.958;-7.470;2023-07-13T04:16:11;3.63;;;1.60;;
64252;SDS011;50592;52.958;-7.470;2023-07-13T04:18:37;7.72;;;2.13;;
64252;SDS011;50592;52.958;-7.470;2023-07-13T04:21:03;4.57;;;2.05;;
64252;SDS011;50592;52.958;-7.470;2023-07-13T04:23:29;4.13;;;1.75;;
64252;SDS011;50592;52.958;-7.470;2023-07-13T04:25:55;7.03;;;2.30;;
64252;SDS011;50592;52.958;-7.470;2023-07-13T04:28:21;4.85;;;1.85;;
64252;SDS011;50592;52.958;-7.470;2023-07-13T04:30:49;3.60;;;1.60;;
64252;SDS011;50592;52.958;-7.470;2023-07-13T04:33:16;6.55;;;2.13;;
64252;SDS011;50592;52.958;-7.470;2023-07-13T04:35:42;4.22;;;1.85;;
64252;SDS011;50592;52.958;-7.470;2023-07-13T04:38:14;7.53;;;2.10;;
64252;SDS011;50592;52.958;-7.470;2023-07-13T04:40:47;4.07;;;1.70;;
64252;SDS011;50592;52.958;-7.470;2023-07-13T04:43:13;4.50;;;1.67;;
64252;SDS011;50592;52.958;-7.470;2023-07-13T04:45:40;5.70;;;2.00;;
64252;SDS011;50592;52.958;-7.470;2023-07-13T04:48:06;3.92;;;2.47;;
64252;SDS011;50592;52.958;-7.470;2023-07-13T04:50:32;7.15;;;2.15;;
64252;SDS011;50592;52.958;-7.470;2023-07-13T04:52:58;5.80;;;1.83;;
64252;SDS011;50592;52.958;-7.470;2023-07-13T04:55:24;3.17;;;1.60;;
64252;SDS011;50592;52.958;-7.470;2023-07-13T04:57:50;3.35;;;1.70;;
64252;SDS011;50592;52.958;-7.470;2023-07-13T05:00:16;3.75;;;1.55;;
64252;SDS011;50592;52.958;-7.470;2023-07-13T05:02:45;2.88;;;1.85;;
64252;SDS011;50592;52.958;-7.470;2023-07-13T05:05:11;3.33;;;1.83;;
64252;SDS011;50592;52.958;-7.470;2023-07-13T05:07:37;3.17;;;1.75;;
64252;SDS011;50592;52.958;-7.470;2023-07-13T05:10:03;3.63;;;1.60;;
64252;SDS011;50592;52.958;-7.470;2023-07-13T05:12:29;2.78;;;1.73;;
64252;SDS011;50592;52.958;-7.470;2023-07-13T05:14:56;4.97;;;1.70;;
64252;SDS011;50592;52.958;-7.470;2023-07-13T05:17:22;3.80;;;1.95;;
64252;SDS011;50592;52.958;-7.470;2023-07-13T05:19:48;3.13;;;1.80;;
64252;SDS011;50592;52.958;-7.470;2023-07-13T05:22:13;3.28;;;1.65;;
64252;SDS011;50592;52.958;-7.470;2023-07-13T05:24:39;1.85;;;1.52;;
64252;SDS011;50592;52.958;-7.470;2023-07-13T05:27:05;3.38;;;2.03;;
64252;SDS011;50592;52.958;-7.470;2023-07-13T05:29:31;4.53;;;1.98;;
64252;SDS011;50592;52.958;-7.470;2023-07-13T05:31:57;2.80;;;1.80;;
64252;SDS011;50592;52.958;-7.470;2023-07-13T05:34:23;3.20;;;1.67;;
64252;SDS011;50592;52.958;-7.470;2023-07-13T05:36:49;2.53;;;1.60;;
64252;SDS011;50592;52.958;-7.470;2023-07-13T05:39:16;3.80;;;1.60;;
64252;SDS011;50592;52.958;-7.470;2023-07-13T05:41:42;2.72;;;1.75;;
64252;SDS011;50592;52.958;-7.470;2023-07-13T05:44:08;6.93;;;1.60;;
64252;SDS011;50592;52.958;-7.470;2023-07-13T05:46:34;3.67;;;1.88;;
64252;SDS011;50592;52.958;-7.470;2023-07-13T05:49:00;3.70;;;1.70;;
64252;SDS011;50592;52.958;-7.470;2023-07-13T05:51:26;5.40;;;1.55;;
64252;SDS011;50592;52.958;-7.470;2023-07-13T05:53:51;3.50;;;1.50;;
64252;SDS011;50592;52.958;-7.470;2023-07-13T05:56:17;2.15;;;1.75;;
64252;SDS011;50592;52.958;-7.470;2023-07-13T05:58:43;3.97;;;2.08;;
64252;SDS011;50592;52.958;-7.470;2023-07-13T06:01:10;3.47;;;1.63;;
64252;SDS011;50592;52.958;-7.470;2023-07-13T06:03:38;5.13;;;1.77;;
64252;SDS011;50592;52.958;-7.470;2023-07-13T06:06:04;7.05;;;1.60;;
64252;SDS011;50592;52.958;-7.470;2023-07-13T06:08:31;4.70;;;1.85;;
64252;SDS011;50592;52.958;-7.470;2023-07-13T06:11:04;4.05;;;1.90;;
64252;SDS011;50592;52.958;-7.470;2023-07-13T06:13:32;4.77;;;1.80;;
64252;SDS011;50592;52.958;-7.470;2023-07-13T06:15:59;6.05;;;2.03;;
64252;SDS011;50592;52.958;-7.470;2023-07-13T06:18:25;4.72;;;2.03;;
64252;SDS011;50592;52.958;-7.470;2023-07-13T06:20:51;8.48;;;1.83;;
64252;SDS011;50592;52.958;-7.470;2023-07-13T06:23:17;7.18;;;2.08;;
64252;SDS011;50592;52.958;-7.470;2023-07-13T06:25:43;4.45;;;1.35;;
64252;SDS011;50592;52.958;-7.470;2023-07-13T06:28:09;8.65;;;2.17;;
64252;SDS011;50592;52.958;-7.470;2023-07-13T06:30:35;4.80;;;1.67;;
64252;SDS011;50592;52.958;-7.470;2023-07-13T06:33:04;7.70;;;2.25;;
64252;SDS011;50592;52.958;-7.470;2023-07-13T06:35:30;7.82;;;2.08;;
64252;SDS011;50592;52.958;-7.470;2023-07-13T06:37:56;12.05;;;2.10;;
64252;SDS011;50592;52.958;-7.470;2023-07-13T06:40:22;6.22;;;2.78;;
64252;SDS011;50592;52.958;-7.470;2023-07-13T06:42:48;3.75;;;1.92;;
64252;SDS011;50592;52.958;-7.470;2023-07-13T06:45:14;5.50;;;2.00;;
64252;SDS011;50592;52.958;-7.470;2023-07-13T06:47:40;9.05;;;2.10;;
64252;SDS011;50592;52.958;-7.470;2023-07-13T06:50:08;7.30;;;1.70;;
64252;SDS011;50592;52.958;-7.470;2023-07-13T06:52:34;4.45;;;2.13;;
64252;SDS011;50592;52.958;-7.470;2023-07-13T06:55:00;5.70;;;1.75;;
64252;SDS011;50592;52.958;-7.470;2023-07-13T06:57:26;8.65;;;2.28;;
64252;SDS011;50592;52.958;-7.470;2023-07-13T06:59:52;6.20;;;1.88;;
64252;SDS011;50592;52.958;-7.470;2023-07-13T07:02:18;8.10;;;2.13;;
64252;SDS011;50592;52.958;-7.470;2023-07-13T07:04:44;4.75;;;2.45;;
64252;SDS011;50592;52.958;-7.470;2023-07-13T07:07:10;6.22;;;1.60;;
64252;SDS011;50592;52.958;-7.470;2023-07-13T07:09:36;6.30;;;2.05;;
64252;SDS011;50592;52.958;-7.470;2023-07-13T07:12:02;10.73;;;2.53;;
64252;SDS011;50592;52.958;-7.470;2023-07-13T07:14:28;7.95;;;3.05;;
64252;SDS011;50592;52.958;-7.470;2023-07-13T07:16:54;10.23;;;2.15;;
64252;SDS011;50592;52.958;-7.470;2023-07-13T07:19:20;6.22;;;2.70;;
64252;SDS011;50592;52.958;-7.470;2023-07-13T07:21:46;10.27;;;3.10;;
64252;SDS011;50592;52.958;-7.470;2023-07-13T07:24:12;6.50;;;1.48;;
64252;SDS011;50592;52.958;-7.470;2023-07-13T07:26:38;9.25;;;2.00;;
64252;SDS011;50592;52.958;-7.470;2023-07-13T07:29:03;7.72;;;2.22;;
64252;SDS011;50592;52.958;-7.470;2023-07-13T07:31:29;8.07;;;1.92;;
64252;SDS011;50592;52.958;-7.470;2023-07-13T07:33:55;9.77;;;2.75;;
64252;SDS011;50592;52.958;-7.470;2023-07-13T07:36:21;7.03;;;2.10;;
64252;SDS011;50592;52.958;-7.470;2023-07-13T07:38:46;6.15;;;2.15;;
64252;SDS011;50592;52.958;-7.470;2023-07-13T07:41:12;5.85;;;2.22;;
64252;SDS011;50592;52.958;-7.470;2023-07-13T07:43:39;5.28;;;1.83;;
64252;SDS011;50592;52.958;-7.470;2023-07-13T07:46:04;8.52;;;2.05;;
64252;SDS011;50592;52.958;-7.470;2023-07-13T07:48:30;4.25;;;1.48;;
64252;SDS011;50592;52.958;-7.470;2023-07-13T07:50:56;4.63;;;1.70;;
64252;SDS011;50592;52.958;-7.470;2023-07-13T07:53:22;3.95;;;1.65;;
64252;SDS011;50592;52.958;-7.470;2023-07-13T07:55:48;9.23;;;2.35;;
64252;SDS011;50592;52.958;-7.470;2023-07-13T07:58:14;5.18;;;1.88;;
64252;SDS011;50592;52.958;-7.470;2023-07-13T08:00:41;3.88;;;1.70;;
64252;SDS011;50592;52.958;-7.470;2023-07-13T08:03:06;9.05;;;1.67;;
64252;SDS011;50592;52.958;-7.470;2023-07-13T08:05:34;7.13;;;2.28;;
64252;SDS011;50592;52.958;-7.470;2023-07-13T08:08:01;4.80;;;1.88;;
64252;SDS011;50592;52.958;-7.470;2023-07-13T08:10:27;6.20;;;1.75;;
64252;SDS011;50592;52.958;-7.470;2023-07-13T08:12:53;8.02;;;1.92;;
64252;SDS011;50592;52.958;-7.470;2023-07-13T08:15:19;5.68;;;2.05;;
64252;SDS011;50592;52.958;-7.470;2023-07-13T08:17:47;3.50;;;1.58;;
64252;SDS011;50592;52.958;-7.470;2023-07-13T08:20:13;12.75;;;2.75;;
64252;SDS011;50592;52.958;-7.470;2023-07-13T08:22:40;12.18;;;2.00;;
64252;SDS011;50592;52.958;-7.470;2023-07-13T08:25:06;6.53;;;1.92;;
64252;SDS011;50592;52.958;-7.470;2023-07-13T08:27:32;6.70;;;1.90;;
64252;SDS011;50592;52.958;-7.470;2023-07-13T08:29:58;9.57;;;2.42;;
64252;SDS011;50592;52.958;-7.470;2023-07-13T08:32:24;5.80;;;1.48;;
64252;SDS011;50592;52.958;-7.470;2023-07-13T08:34:50;3.20;;;1.40;;
64252;SDS011;50592;52.958;-7.470;2023-07-13T08:37:17;7.35;;;2.65;;
64252;SDS011;50592;52.958;-7.470;2023-07-13T08:39:43;4.72;;;1.63;;
64252;SDS011;50592;52.958;-7.470;2023-07-13T08:42:26;7.05;;;1.92;;
64252;SDS011;50592;52.958;-7.470;2023-07-13T08:47:39;7.93;;;1.75;;
64252;SDS011;50592;52.958;-7.470;2023-07-13T08:50:11;8.95;;;2.17;;
64252;SDS011;50592;52.958;-7.470;2023-07-13T08:52:41;7.43;;;1.73;;
64252;SDS011;50592;52.958;-7.470;2023-07-13T08:55:21;4.82;;;1.60;;
64252;SDS011;50592;52.958;-7.470;2023-07-13T08:57:56;6.93;;;1.70;;
64252;SDS011;50592;52.958;-7.470;2023-07-13T09:00:34;7.80;;;1.42;;
64252;SDS011;50592;52.958;-7.470;2023-07-13T09:03:18;3.25;;;1.60;;
64252;SDS011;50592;52.958;-7.470;2023-07-13T09:05:49;5.13;;;1.88;;
64252;SDS011;50592;52.958;-7.470;2023-07-13T09:14:05;5.53;;;1.52;;
64252;SDS011;50592;52.958;-7.470;2023-07-13T09:16:45;7.63;;;1.50;;
64252;SDS011;50592;52.958;-7.470;2023-07-13T09:19:15;7.35;;;1.65;;
64252;SDS011;50592;52.958;-7.470;2023-07-13T09:21:45;5.05;;;1.50;;
64252;SDS011;50592;52.958;-7.470;2023-07-13T09:26:46;3.60;;;1.60;;
64252;SDS011;50592;52.958;-7.470;2023-07-13T09:29:23;3.45;;;1.30;;
64252;SDS011;50592;52.958;-7.470;2023-07-13T09:31:54;7.93;;;2.78;;
64252;SDS011;50592;52.958;-7.470;2023-07-13T09:34:25;5.20;;;1.70;;
64252;SDS011;50592;52.958;-7.470;2023-07-13T09:36:51;8.05;;;1.40;;
64252;SDS011;50592;52.958;-7.470;2023-07-13T09:44:42;3.13;;;1.67;;
64252;SDS011;50592;52.958;-7.470;2023-07-13T09:47:24;6.43;;;1.73;;
64252;SDS011;50592;52.958;-7.470;2023-07-13T09:50:06;5.68;;;1.58;;
64252;SDS011;50592;52.958;-7.470;2023-07-13T09:52:45;4.60;;;1.38;;
64252;SDS011;50592;52.958;-7.470;2023-07-13T09:55:32;6.68;;;2.28;;
64252;SDS011;50592;52.958;-7.470;2023-07-13T10:00:38;6.15;;;2.42;;
64252;SDS011;50592;52.958;-7.470;2023-07-13T10:03:09;5.85;;;1.40;;
64252;SDS011;50592;52.958;-7.470;2023-07-13T10:05:43;5.07;;;1.38;;
64252;SDS011;50592;52.958;-7.470;2023-07-13T10:08:21;4.13;;;1.33;;
64252;SDS011;50592;52.958;-7.470;2023-07-13T10:10:57;8.68;;;1.98;;
64252;SDS011;50592;52.958;-7.470;2023-07-13T10:13:37;6.30;;;1.80;;
64252;SDS011;50592;52.958;-7.470;2023-07-13T10:16:26;5.38;;;1.52;;
64252;SDS011;50592;52.958;-7.470;2023-07-13T10:21:52;3.95;;;1.40;;
64252;SDS011;50592;52.958;-7.470;2023-07-13T10:24:26;7.45;;;2.63;;
64252;SDS011;50592;52.958;-7.470;2023-07-13T10:29:29;3.95;;;1.48;;
64252;SDS011;50592;52.958;-7.470;2023-07-13T10:32:02;5.95;;;1.23;;
64252;SDS011;50592;52.958;-7.470;2023-07-13T10:34:34;4.10;;;1.50;;
64252;SDS011;50592;52.958;-7.470;2023-07-13T10:37:01;8.00;;;1.35;;
64252;SDS011;50592;52.958;-7.470;2023-07-13T10:39:27;1.95;;;1.30;;
64252;SDS011;50592;52.958;-7.470;2023-07-13T10:41:57;7.25;;;1.90;;
64252;SDS011;50592;52.958;-7.470;2023-07-13T10:44:27;3.30;;;1.38;;
64252;SDS011;50592;52.958;-7.470;2023-07-13T10:46:59;2.42;;;1.17;;
64252;SDS011;50592;52.958;-7.470;2023-07-13T10:49:34;4.97;;;1.77;;
64252;SDS011;50592;52.958;-7.470;2023-07-13T10:52:02;3.25;;;1.40;;
64252;SDS011;50592;52.958;-7.470;2023-07-13T10:54:32;4.35;;;1.52;;
64252;SDS011;50592;52.958;-7.470;2023-07-13T10:59:38;4.50;;;1.60;;
64252;SDS011;50592;52.958;-7.470;2023-07-13T11:02:11;1.85;;;1.00;;
64252;SDS011;50592;52.958;-7.470;2023-07-13T11:04:46;4.85;;;1.10;;
64252;SDS011;50592;52.958;-7.470;2023-07-13T11:07:21;1.58;;;0.98;;
64252;SDS011;50592;52.958;-7.470;2023-07-13T11:09:56;3.22;;;1.20;;
64252;SDS011;50592;52.958;-7.470;2023-07-13T11:20:41;2.25;;;0.80;;
64252;SDS011;50592;52.958;-7.470;2023-07-13T11:30:36;2.83;;;0.80;;
64252;SDS011;50592;52.958;-7.470;2023-07-13T11:36:00;5.00;;;0.80;;
64252;SDS011;50592;52.958;-7.470;2023-07-13T11:38:39;3.42;;;0.95;;
64252;SDS011;50592;52.958;-7.470;2023-07-13T11:41:07;5.57;;;0.90;;
64252;SDS011;50592;52.958;-7.470;2023-07-13T11:43:39;3.55;;;0.90;;
64252;SDS011;50592;52.958;-7.470;2023-07-13T11:46:15;1.67;;;0.70;;
64252;SDS011;50592;52.958;-7.470;2023-07-13T11:48:48;1.95;;;1.02;;
64252;SDS011;50592;52.958;-7.470;2023-07-13T11:51:20;3.70;;;0.60;;
64252;SDS011;50592;52.958;-7.470;2023-07-13T11:53:52;4.03;;;0.77;;
64252;SDS011;50592;52.958;-7.470;2023-07-13T11:56:19;2.40;;;0.98;;
64252;SDS011;50592;52.958;-7.470;2023-07-13T11:58:48;2.72;;;0.70;;
64252;SDS011;50592;52.958;-7.470;2023-07-13T12:01:18;1.55;;;0.70;;
64252;SDS011;50592;52.958;-7.470;2023-07-13T12:03:47;4.22;;;0.90;;
64252;SDS011;50592;52.958;-7.470;2023-07-13T12:06:25;2.35;;;0.93;;
64252;SDS011;50592;52.958;-7.470;2023-07-13T12:08:57;3.13;;;1.10;;
64252;SDS011;50592;52.958;-7.470;2023-07-13T12:11:29;3.05;;;1.00;;
64252;SDS011;50592;52.958;-7.470;2023-07-13T12:13:55;2.80;;;0.82;;
64252;SDS011;50592;52.958;-7.470;2023-07-13T12:16:24;3.00;;;0.98;;
64252;SDS011;50592;52.958;-7.470;2023-07-13T12:18:54;6.05;;;1.05;;
64252;SDS011;50592;52.958;-7.470;2023-07-13T12:21:23;2.67;;;1.20;;
64252;SDS011;50592;52.958;-7.470;2023-07-13T12:24:00;2.83;;;1.10;;
64252;SDS011;50592;52.958;-7.470;2023-07-13T12:26:29;6.10;;;1.60;;
64252;SDS011;50592;52.958;-7.470;2023-07-13T12:28:58;2.13;;;1.15;;
64252;SDS011;50592;52.958;-7.470;2023-07-13T12:33:56;5.50;;;1.38;;
64252;SDS011;50592;52.958;-7.470;2023-07-13T12:36:23;2.58;;;1.40;;
64252;SDS011;50592;52.958;-7.470;2023-07-13T12:38:49;3.53;;;1.25;;
64252;SDS011;50592;52.958;-7.470;2023-07-13T12:41:16;3.17;;;1.30;;
64252;SDS011;50592;52.958;-7.470;2023-07-13T12:43:42;3.25;;;1.17;;
64252;SDS011;50592;52.958;-7.470;2023-07-13T12:46:17;2.80;;;1.33;;
64252;SDS011;50592;52.958;-7.470;2023-07-13T12:48:53;1.98;;;1.30;;
64252;SDS011;50592;52.958;-7.470;2023-07-13T12:51:24;2.92;;;1.60;;
64252;SDS011;50592;52.958;-7.470;2023-07-13T12:53:55;2.53;;;1.33;;
64252;SDS011;50592;52.958;-7.470;2023-07-13T12:56:26;3.63;;;1.63;;
64252;SDS011;50592;52.958;-7.470;2023-07-13T12:58:58;2.75;;;1.23;;
64252;SDS011;50592;52.958;-7.470;2023-07-13T13:01:32;2.35;;;1.25;;
64252;SDS011;50592;52.958;-7.470;2023-07-13T13:04:00;2.25;;;1.35;;
64252;SDS011;50592;52.958;-7.470;2023-07-13T13:06:32;2.42;;;1.15;;
64252;SDS011;50592;52.958;-7.470;2023-07-13T13:08:59;3.08;;;1.30;;
64252;SDS011;50592;52.958;-7.470;2023-07-13T13:11:26;3.47;;;1.50;;
64252;SDS011;50592;52.958;-7.470;2023-07-13T13:13:53;3.03;;;1.40;;
64252;SDS011;50592;52.958;-7.470;2023-07-13T13:18:52;3.53;;;1.27;;
64252;SDS011;50592;52.958;-7.470;2023-07-13T13:21:20;1.77;;;1.05;;
64252;SDS011;50592;52.958;-7.470;2023-07-13T13:23:46;1.42;;;0.90;;
64252;SDS011;50592;52.958;-7.470;2023-07-13T13:26:13;3.10;;;1.10;;
64252;SDS011;50592;52.958;-7.470;2023-07-13T13:28:43;2.70;;;1.10;;
64252;SDS011;50592;52.958;-7.470;2023-07-13T13:31:10;4.75;;;0.90;;
64252;SDS011;50592;52.958;-7.470;2023-07-13T13:33:38;2.33;;;1.00;;
64252;SDS011;50592;52.958;-7.470;2023-07-13T13:36:14;2.45;;;1.17;;
64252;SDS011;50592;52.958;-7.470;2023-07-13T13:38:42;1.70;;;0.82;;
64252;SDS011;50592;52.958;-7.470;2023-07-13T13:41:09;1.73;;;0.98;;
64252;SDS011;50592;52.958;-7.470;2023-07-13T13:43:40;2.70;;;1.00;;
64252;SDS011;50592;52.958;-7.470;2023-07-13T13:48:44;3.17;;;1.52;;
64252;SDS011;50592;52.958;-7.470;2023-07-13T13:51:15;4.05;;;1.23;;
64252;SDS011;50592;52.958;-7.470;2023-07-13T13:53:43;2.05;;;1.35;;
64252;SDS011;50592;52.958;-7.470;2023-07-13T13:56:11;4.45;;;1.92;;
64252;SDS011;50592;52.958;-7.470;2023-07-13T13:58:37;8.60;;;1.77;;
64252;SDS011;50592;52.958;-7.470;2023-07-13T14:01:03;3.92;;;1.80;;
64252;SDS011;50592;52.958;-7.470;2023-07-13T14:03:33;7.70;;;2.78;;
64252;SDS011;50592;52.958;-7.470;2023-07-13T14:05:59;5.43;;;2.15;;
64252;SDS011;50592;52.958;-7.470;2023-07-13T14:08:25;7.70;;;4.10;;
64252;SDS011;50592;52.958;-7.470;2023-07-13T14:10:53;39.72;;;32.25;;
64252;SDS011;50592;52.958;-7.470;2023-07-13T14:13:21;34.30;;;29.85;;
64252;SDS011;50592;52.958;-7.470;2023-07-13T14:15:52;15.63;;;12.15;;
64252;SDS011;50592;52.958;-7.470;2023-07-13T14:18:19;2.75;;;1.45;;
64252;SDS011;50592;52.958;-7.470;2023-07-13T14:20:45;9.45;;;7.97;;
64252;SDS011;50592;52.958;-7.470;2023-07-13T14:23:13;2.42;;;1.23;;
64252;SDS011;50592;52.958;-7.470;2023-07-13T14:25:47;5.25;;;4.53;;
64252;SDS011;50592;52.958;-7.470;2023-07-13T14:28:21;4.28;;;1.10;;
64252;SDS011;50592;52.958;-7.470;2023-07-13T14:30:50;2.60;;;1.23;;
64252;SDS011;50592;52.958;-7.470;2023-07-13T14:33:16;2.35;;;0.98;;
64252;SDS011;50592;52.958;-7.470;2023-07-13T14:35:42;7.78;;;6.72;;
64252;SDS011;50592;52.958;-7.470;2023-07-13T14:38:12;3.38;;;0.75;;
64252;SDS011;50592;52.958;-7.470;2023-07-13T14:40:42;10.20;;;7.65;;
64252;SDS011;50592;52.958;-7.470;2023-07-13T14:43:10;5.95;;;4.75;;
64252;SDS011;50592;52.958;-7.470;2023-07-13T14:45:41;4.50;;;2.75;;
64252;SDS011;50592;52.958;-7.470;2023-07-13T14:48:20;2.03;;;1.00;;
64252;SDS011;50592;52.958;-7.470;2023-07-13T14:50:53;1.40;;;0.65;;
64252;SDS011;50592;52.958;-7.470;2023-07-13T14:53:21;1.13;;;0.77;;
64252;SDS011;50592;52.958;-7.470;2023-07-13T14:55:48;1.45;;;0.52;;
64252;SDS011;50592;52.958;-7.470;2023-07-13T14:58:14;1.40;;;0.85;;
64252;SDS011;50592;52.958;-7.470;2023-07-13T15:00:40;1.20;;;0.93;;
64252;SDS011;50592;52.958;-7.470;2023-07-13T15:03:11;1.42;;;0.65;;
64252;SDS011;50592;52.958;-7.470;2023-07-13T15:05:44;0.65;;;0.63;;
64252;SDS011;50592;52.958;-7.470;2023-07-13T15:08:10;1.95;;;0.80;;
64252;SDS011;50592;52.958;-7.470;2023-07-13T15:10:37;1.42;;;0.80;;
64252;SDS011;50592;52.958;-7.470;2023-07-13T15:13:21;2.83;;;0.70;;
64252;SDS011;50592;52.958;-7.470;2023-07-13T15:15:49;2.90;;;0.50;;
64252;SDS011;50592;52.958;-7.470;2023-07-13T15:18:18;0.75;;;0.50;;
64252;SDS011;50592;52.958;-7.470;2023-07-13T15:20:46;3.95;;;0.50;;
64252;SDS011;50592;52.958;-7.470;2023-07-13T15:23:14;1.65;;;0.40;;
64252;SDS011;50592;52.958;-7.470;2023-07-13T15:25:42;1.77;;;0.77;;
64252;SDS011;50592;52.958;-7.470;2023-07-13T15:28:09;0.70;;;0.55;;
64252;SDS011;50592;52.958;-7.470;2023-07-13T15:30:40;1.13;;;0.50;;
64252;SDS011;50592;52.958;-7.470;2023-07-13T15:35:47;1.55;;;0.77;;
64252;SDS011;50592;52.958;-7.470;2023-07-13T15:38:15;1.15;;;0.47;;